Startpagina
METAR-TAF:

METAR-TAF

Vliegvelden :

Câmpia Turzii, Roemenië

breedte: 46-30-12N, lengte: 023-53-07E, hoogte: 324 m

Actueel weer

Dit bericht is 23 minuten geleden gemaakt, om 14:00 UTC
Wind 6 kt uit het westzuidwesten
Temperatuur 30°C
Vochtigheid 43%
Druk 1018 hPa
Zicht 10 km of meer
Verspreide wolken op 5000 ft

METAR: LRCT 181400Z 25006KT 9999 SCT050 30/16 Q1018 BLU BLU

Tijdstip: 17:23 (14:23 UTC)

Verwachting

Dit bericht is 3 uur en het 23 minuten geleden gemaakt, om 11:00 UTC
Verwachting geldig van 18 om 12 UTC tot 19 om 12 UTC
Wind 3 kt uit variabele richting
Zicht 10 km of meer
Weinig wolken op 5000 ft
Tijdelijke
van 18 om 12 UTC tot 18 om 16 UTC
Weinig wolken op 4000 ft, Cumulonimbus.
Verspreide wolken op 6000 ft
Wijzigt naar
van 18 om 19 UTC tot 18 om 21 UTC
Wind 4 kt uit het noordwesten
Onbewolkt

TAF: LRCT 181100Z 1812/1912 VRB03KT 9999 FEW050 TEMPO 1812/1816 FEW040CB SCT060 BECMG 1819/1821 32004KT SKC

Waarnemingen en weersverwachtingen van meer dan 4000 vliegvelden (METAR en TAF).

De beschikbare stations zijn de gele en rode punten op de kaart.

Ga met uw muis naar het station om de naam te zien.

Klik dan om waarnemingen en weersverwachtingen te zien.

kaart wijzigen: klik op de groene knoppen met een zwart kruis om in te zoomen, op de groene knop met een streepje om uit te zoomen of op de groene pijlen voor aangrenzende kaarten.


METAR-TAF: